Paranaiba, Brazil
Current Conditions -  °F | °C
As of 9:15 AM on Saturday 20 Dec 2014 (Local Time) from SBDN Reporting Station
Broken Clouds Broken Clouds  
Wind Chill: 79°   Ceiling: 1700
Heat Index: 81°   Visibility: 6mi
Dew Point: 70°   Wind: 7mph
Humidity: 74%   Direction: 20°NNE
Pressure: 29.85"   Gusts: NA
Location:  19.68°S, 51.19°W
Report Text: SBDN 201215Z 02006KT 9999 SCT015 BKN017 26/21 Q1011
Loading
Personal Weather Stations






























Interactive Weather Map New forecast layout! Learn more

10-Day Weather Forecast

Advertisements
Track Severe Weather on mobile